Time;durP1;ratioP1;P1;durP2;ratioP2;P2;SDS_P1;SDS_P2;PMS_P1;PMS_P2;Temp;Humidity;BMP_temperature;BMP_pressure;BME280_temperature;BME280_humidity;BME280_pressure;Samples;Min_cycle;Max_cycle;Signal;HPM_P1;HPM_P2
2022/11/18 00:00:04;;;;;;;3.55;1.40;;;;;;;11.07;79.61;97688.22;344391;28;1189;-68
2022/11/18 00:00:17;;;;;;;3.30;1.42;;;;;;;11.10;79.38;97687.16;343986;28;1738;-68
2022/11/18 00:00:29;;;;;;;2.75;1.35;;;;;;;11.10;79.51;97688.00;344317;28;1630;-68
2022/11/18 00:00:41;;;;;;;2.95;1.40;;;;;;;11.14;78.96;97689.44;343226;28;1066;-68
2022/11/18 00:00:53;;;;;;;3.13;1.40;;;;;;;11.11;78.83;97688.84;344667;28;1189;-68
2022/11/18 00:01:10;;;;;;;3.45;1.40;;;;;;;11.11;79.06;97689.66;344544;28;1657;-68
2022/11/18 00:01:22;;;;;;;4.25;1.38;;;;;;;11.13;78.69;97693.00;343985;28;1767;-68
2022/11/18 00:01:35;;;;;;;4.38;1.42;;;;;;;11.13;78.95;97690.41;344382;28;1672;-68
2022/11/18 00:01:47;;;;;;;3.45;1.45;;;;;;;11.15;78.56;97690.31;344486;28;1062;-68
2022/11/18 00:01:59;;;;;;;3.33;1.40;;;;;;;11.17;78.82;97691.88;344719;28;2025;-68
2022/11/18 00:02:11;;;;;;;2.88;1.40;;;;;;;11.19;78.41;97691.78;344556;28;1110;-68
2022/11/18 00:02:23;;;;;;;2.05;1.30;;;;;;;11.20;78.31;97694.25;343668;28;1328;-68
2022/11/18 00:02:35;;;;;;;2.85;1.30;;;;;;;11.21;78.55;97689.91;343324;28;1289;-68
2022/11/18 00:02:47;;;;;;;3.92;1.38;;;;;;;11.23;78.50;97694.97;343285;28;1089;-68
2022/11/18 00:02:59;;;;;;;4.55;1.48;;;;;;;11.24;78.70;97696.66;343244;28;3234;-68
2022/11/18 00:03:11;;;;;;;3.85;1.63;;;;;;;11.24;78.91;97696.66;343595;28;3358;-68
2022/11/18 00:03:23;;;;;;;3.20;1.50;;;;;;;11.23;78.78;97687.16;344260;28;1395;-68
2022/11/18 00:03:35;;;;;;;3.47;1.42;;;;;;;11.22;78.97;97693.31;343960;28;4841;-68
2022/11/18 00:03:49;;;;;;;3.35;1.33;;;;;;;11.21;78.86;97697.69;345128;28;1561;-68
2022/11/18 00:04:01;;;;;;;2.25;1.48;;;;;;;11.20;79.23;97689.03;345002;28;1325;-68
2022/11/18 00:04:13;;;;;;;2.10;1.50;;;;;;;11.22;79.18;97695.94;345149;28;1620;-68
2022/11/18 00:04:25;;;;;;;2.75;1.67;;;;;;;11.22;78.97;97696.75;345020;28;1299;-68
2022/11/18 00:04:37;;;;;;;4.57;1.70;;;;;;;11.22;79.14;97696.75;344365;28;1805;-68
2022/11/18 00:04:49;;;;;;;4.30;1.60;;;;;;;11.23;79.11;97689.78;344784;28;1263;-68
2022/11/18 00:05:00;;;;;;;4.55;1.58;;;;;;;11.25;78.81;97693.09;343508;28;4740;-68
2022/11/18 00:05:12;;;;;;;3.50;1.52;;;;;;;11.25;78.85;97690.50;343816;28;1066;-68
2022/11/18 00:05:24;;;;;;;4.70;1.70;;;;;;;11.24;78.86;97696.66;344862;28;1313;-68
2022/11/18 00:05:36;;;;;;;4.78;1.60;;;;;;;11.23;78.94;97692.38;345236;28;1796;-68
2022/11/18 00:05:56;;;;;;;4.03;1.52;;;;;;;11.24;79.07;97694.06;345142;28;1181;-68
2022/11/18 00:06:13;;;;;;;2.83;1.40;;;;;;;11.19;78.77;97696.97;345238;28;1071;-68
2022/11/18 00:06:28;;;;;;;2.50;1.33;;;;;;;11.18;78.58;97701.31;345045;28;1486;-68
2022/11/18 00:06:40;;;;;;;2.30;1.30;;;;;;;11.18;79.00;97693.50;344739;28;1914;-68
2022/11/18 00:06:52;;;;;;;1.60;1.30;;;;;;;11.20;79.08;97696.03;344859;28;1721;-68
2022/11/18 00:07:04;;;;;;;1.58;1.27;;;;;;;11.22;78.89;97701.13;344436;28;1707;-68
2022/11/18 00:07:16;;;;;;;2.67;1.35;;;;;;;11.23;78.92;97697.56;343616;28;1315;-68
2022/11/18 00:07:28;;;;;;;2.63;1.30;;;;;;;11.23;78.81;97694.97;344244;28;2124;-68
2022/11/18 00:07:40;;;;;;;3.25;1.30;;;;;;;11.23;79.30;97700.19;344149;28;1912;-68
2022/11/18 00:07:52;;;;;;;4.90;1.45;;;;;;;11.24;79.05;97699.25;344724;28;1189;-68
2022/11/18 00:08:04;;;;;;;6.00;1.60;;;;;;;11.23;79.13;97702.78;344779;28;1038;-68
2022/11/18 00:08:16;;;;;;;5.28;1.70;;;;;;;11.23;78.95;97697.56;344891;28;1323;-68
2022/11/18 00:08:29;;;;;;;2.83;1.67;;;;;;;11.20;79.00;97694.25;343507;28;1214;-68
2022/11/18 00:08:41;;;;;;;4.43;1.58;;;;;;;11.22;79.08;97701.13;343115;28;2411;-68
2022/11/18 00:08:54;;;;;;;4.55;1.30;;;;;;;11.21;79.24;97697.69;343187;28;1295;-68
2022/11/18 00:09:07;;;;;;;2.70;1.10;;;;;;;11.22;78.78;97695.94;343465;28;1061;-68
2022/11/18 00:09:19;;;;;;;2.40;1.20;;;;;;;11.24;78.86;97696.66;344175;28;1067;-68
2022/11/18 00:09:31;;;;;;;2.72;1.40;;;;;;;11.25;79.24;97695.69;343849;28;1237;-68
2022/11/18 00:09:43;;;;;;;3.30;1.60;;;;;;;11.27;79.20;97699.03;343486;28;2008;-68
2022/11/18 00:09:55;;;;;;;3.47;1.58;;;;;;;11.28;79.19;97700.72;343244;28;1186;-68
2022/11/18 00:10:07;;;;;;;2.15;1.48;;;;;;;11.31;78.79;97697.94;343321;28;1057;-68
2022/11/18 00:10:19;;;;;;;2.10;1.20;;;;;;;11.32;78.73;97699.56;343826;28;1644;-68
2022/11/18 00:10:31;;;;;;;1.92;1.08;;;;;;;11.34;78.94;97700.31;344540;28;1673;-68
2022/11/18 00:10:43;;;;;;;1.85;1.05;;;;;;;11.34;78.79;97700.31;343511;28;1106;-68
2022/11/18 00:10:55;;;;;;;1.73;1.05;;;;;;;11.36;78.68;97701.03;343333;28;1251;-68
2022/11/18 00:14:23;;;;;;;1.90;1.42;;;;;;;11.36;77.38;97701.03;343821;28;1360;-68
2022/11/18 00:14:35;;;;;;;1.83;1.35;;;;;;;11.38;77.56;97696.56;343510;28;1833;-68
2022/11/18 00:14:47;;;;;;;2.30;1.52;;;;;;;11.38;77.61;97699.16;344390;28;1914;-68
2022/11/18 00:14:59;;;;;;;2.70;1.48;;;;;;;11.38;77.84;97699.16;344856;28;1184;-68
2022/11/18 00:15:11;;;;;;;2.03;1.13;;;;;;;11.41;77.41;97698.97;344894;28;1053;-68
2022/11/18 00:15:23;;;;;;;1.88;1.20;;;;;;;11.42;77.59;97697.19;344796;28;1359;-68
2022/11/18 00:15:42;;;;;;;2.20;1.52;;;;;;;11.43;77.43;97702.31;343886;28;1845;-68
2022/11/18 00:16:09;;;;;;;1.95;1.58;;;;;;;11.39;77.82;97704.25;344882;28;1292;-68
2022/11/18 00:16:22;;;;;;;2.45;1.45;;;;;;;11.39;77.71;97699.06;344331;28;1198;-68
2022/11/18 00:16:34;;;;;;;3.38;1.70;;;;;;;11.39;77.62;97698.25;344335;28;1807;-68
2022/11/18 00:16:49;;;;;;;3.45;1.65;;;;;;;11.37;77.94;97694.91;345008;28;1131;-68
2022/11/18 00:17:03;;;;;;;3.08;1.60;;;;;;;11.36;78.00;97693.22;344969;28;1063;-68
2022/11/18 00:17:15;;;;;;;3.15;1.80;;;;;;;11.35;78.36;97692.41;344476;28;1884;-68
2022/11/18 00:17:27;;;;;;;2.85;1.80;;;;;;;11.35;78.28;97696.78;344597;28;1733;-68
2022/11/18 00:17:39;;;;;;;3.70;1.70;;;;;;;11.35;78.29;97691.56;344810;28;1750;-68
2022/11/18 00:17:51;;;;;;;4.00;1.70;;;;;;;11.36;78.05;97698.44;345108;28;1064;-68
2022/11/18 00:18:03;;;;;;;3.83;1.60;;;;;;;11.36;78.70;97698.44;345031;28;1138;-68
2022/11/18 00:18:15;;;;;;;2.33;1.35;;;;;;;11.37;78.52;97694.91;345152;28;1348;-68
2022/11/18 00:18:27;;;;;;;3.45;1.55;;;;;;;11.36;78.53;97686.25;343936;28;1036;-68
2022/11/18 00:18:39;;;;;;;4.60;1.50;;;;;;;11.34;78.73;97695.09;343845;28;1094;-68
2022/11/18 00:18:51;;;;;;;4.28;1.50;;;;;;;11.30;78.69;97693.66;343706;28;1169;-68
2022/11/18 00:19:03;;;;;;;2.88;1.60;;;;;;;11.28;78.54;97696.34;343460;28;1193;-68
2022/11/18 00:19:15;;;;;;;3.25;1.77;;;;;;;11.22;78.91;97690.72;344219;28;1257;-68
2022/11/18 00:19:33;;;;;;;3.45;1.83;;;;;;;11.19;78.65;97694.38;343568;28;1062;-68
2022/11/18 00:19:45;;;;;;;2.83;1.73;;;;;;;11.12;79.08;97686.13;343451;28;1174;-68
2022/11/18 00:19:57;;;;;;;2.38;1.67;;;;;;;11.07;79.11;97688.22;343378;28;1315;-68
2022/11/18 00:20:09;;;;;;;2.10;1.50;;;;;;;11.07;79.93;97690.81;343428;28;1056;-68
2022/11/18 00:20:21;;;;;;;2.17;1.60;;;;;;;11.07;79.40;97690.81;344180;28;1305;-68
2022/11/18 00:20:34;;;;;;;2.88;1.70;;;;;;;11.06;79.52;97686.53;344809;28;1063;-68
2022/11/18 00:20:46;;;;;;;2.78;1.58;;;;;;;11.06;79.91;97686.53;344700;28;1287;-68
2022/11/18 00:21:02;;;;;;;2.33;1.50;;;;;;;11.04;79.95;97684.97;343525;28;1697;-71
2022/11/18 00:21:14;;;;;;;2.28;1.40;;;;;;;11.04;79.71;97685.78;343279;28;2907;-66
2022/11/18 00:21:26;;;;;;;2.20;1.38;;;;;;;11.08;79.65;97686.44;342014;28;1020;-66
2022/11/18 00:21:38;;;;;;;2.70;1.33;;;;;;;11.08;79.42;97684.66;341988;28;1008;-66
2022/11/18 00:21:50;;;;;;;3.53;1.40;;;;;;;11.08;79.81;97687.25;342873;28;1481;-67
2022/11/18 00:22:04;;;;;;;3.65;1.38;;;;;;;11.09;79.69;97682.91;343532;28;1266;-66
2022/11/18 00:22:16;;;;;;;2.88;1.50;;;;;;;11.13;79.46;97685.19;343485;28;1356;-67
2022/11/18 00:22:28;;;;;;;3.33;1.42;;;;;;;11.14;79.47;97686.84;344559;28;1322;-66
2022/11/18 00:22:42;;;;;;;3.33;1.45;;;;;;;11.15;79.48;97691.13;344853;28;1059;-66
2022/11/18 00:22:54;;;;;;;3.58;1.48;;;;;;;11.15;79.88;97691.13;344185;28;1627;-67
2022/11/18 00:23:06;;;;;;;2.63;1.40;;;;;;;11.14;79.56;97689.44;344685;28;1059;-67
2022/11/18 00:23:17;;;;;;;3.58;1.40;;;;;;;11.17;79.67;97694.47;344803;28;1322;-66
2022/11/18 00:23:30;;;;;;;3.80;1.42;;;;;;;11.17;79.45;97683.25;344671;28;1023;-67
2022/11/18 00:23:42;;;;;;;4.70;1.50;;;;;;;11.16;79.72;97692.78;345110;28;1981;-66
2022/11/18 00:23:54;;;;;;;4.30;1.52;;;;;;;11.16;79.31;97684.16;344977;28;1084;-67
2022/11/18 00:24:06;;;;;;;6.20;1.60;;;;;;;11.15;79.68;97679.91;344764;28;1185;-66
2022/11/18 00:24:19;;;;;;;5.15;1.58;;;;;;;11.14;79.60;97692.06;344779;28;1374;-66
2022/11/18 00:24:31;;;;;;;3.42;1.60;;;;;;;11.16;79.62;97687.59;345112;28;1722;-66
2022/11/18 00:24:43;;;;;;;3.15;1.60;;;;;;;11.16;79.49;97687.59;344566;28;1749;-66
2022/11/18 00:24:55;;;;;;;3.10;1.35;;;;;;;11.16;79.44;97692.78;344874;28;1083;-67
2022/11/18 00:25:07;;;;;;;3.05;1.40;;;;;;;11.17;79.28;97688.44;344912;28;1270;-66
2022/11/18 00:25:19;;;;;;;2.38;1.40;;;;;;;11.16;79.69;97687.59;344876;28;1331;-67
2022/11/18 00:25:33;;;;;;;1.92;1.30;;;;;;;11.16;79.51;97687.59;344968;28;1559;-66
2022/11/18 00:25:45;;;;;;;1.92;1.30;;;;;;;11.17;79.79;97688.44;344944;28;1268;-67
2022/11/18 00:26:11;;;;;;;2.05;1.38;;;;;;;11.14;79.78;97683.41;345081;28;1022;-67
2022/11/18 00:26:23;;;;;;;2.47;1.33;;;;;;;11.15;79.46;97688.53;344919;28;1316;-66
2022/11/18 00:26:35;;;;;;;2.63;1.50;;;;;;;11.15;79.75;97691.13;344217;28;1645;-66
2022/11/18 00:26:47;;;;;;;2.50;1.42;;;;;;;11.15;79.59;97688.53;344368;28;1546;-67
2022/11/18 00:26:59;;;;;;;2.55;1.40;;;;;;;11.15;79.79;97685.94;345196;28;1628;-66
2022/11/18 00:27:11;;;;;;;2.33;1.35;;;;;;;11.16;79.80;97691.97;344936;28;1063;-66
2022/11/18 00:27:23;;;;;;;2.17;1.35;;;;;;;11.14;79.46;97692.06;344183;28;1903;-66
2022/11/18 00:27:35;;;;;;;3.20;1.50;;;;;;;11.17;79.82;97691.03;344299;28;1615;-66
2022/11/18 00:27:47;;;;;;;3.20;1.48;;;;;;;11.18;79.47;97690.91;344820;28;872;-67
2022/11/18 00:27:59;;;;;;;4.45;1.40;;;;;;;11.18;79.42;97690.09;344968;28;1011;-67
2022/11/18 00:28:11;;;;;;;4.13;1.45;;;;;;;11.19;79.15;97692.59;345018;28;1023;-66
2022/11/18 00:28:23;;;;;;;3.13;1.50;;;;;;;11.19;79.23;97687.38;344787;28;1275;-66
2022/11/18 00:28:35;;;;;;;2.40;1.60;;;;;;;11.19;79.06;97689.16;345002;28;1016;-67
2022/11/18 00:28:47;;;;;;;2.92;1.55;;;;;;;11.20;79.33;97686.44;345115;28;1036;-66
2022/11/18 00:28:59;;;;;;;2.95;1.50;;;;;;;11.20;79.38;97683.84;344720;28;1171;-66
2022/11/18 00:29:11;;;;;;;2.95;1.60;;;;;;;11.22;79.41;97690.72;343885;28;2198;-67
2022/11/18 00:29:27;;;;;;;2.58;1.70;;;;;;;11.22;79.23;97691.53;344215;28;1785;-67
2022/11/18 00:29:39;;;;;;;2.50;1.70;;;;;;;11.22;78.99;97686.34;343780;28;1197;-66
2022/11/18 00:29:51;;;;;;;3.53;1.60;;;;;;;11.20;78.88;97683.00;343678;28;2503;-66
2022/11/18 00:30:03;;;;;;;4.03;1.67;;;;;;;11.22;79.02;97680.31;344929;28;1151;-66
2022/11/18 00:30:16;;;;;;;3.17;1.58;;;;;;;11.18;79.28;97685.72;344985;28;1166;-66
2022/11/18 00:30:28;;;;;;;2.63;1.52;;;;;;;11.18;79.32;97685.72;345161;28;1308;-67
2022/11/18 00:30:40;;;;;;;4.88;1.60;;;;;;;11.17;79.25;97689.25;344908;28;1059;-67
2022/11/18 00:30:52;;;;;;;5.43;1.65;;;;;;;11.17;79.56;97684.06;345245;28;1064;-66
2022/11/18 00:31:09;;;;;;;5.15;1.58;;;;;;;11.15;79.48;97685.09;344230;28;1552;-66
2022/11/18 00:31:21;;;;;;;3.65;1.60;;;;;;;11.16;79.76;97686.75;344649;28;1366;-66
2022/11/18 00:31:33;;;;;;;3.67;1.65;;;;;;;11.15;79.41;97688.53;344495;28;937;-66
2022/11/18 00:31:46;;;;;;;2.75;1.67;;;;;;;11.17;79.19;97680.63;345198;28;1086;-66
2022/11/18 00:31:58;;;;;;;3.85;1.70;;;;;;;11.18;79.50;97680.50;344997;28;1552;-67
2022/11/18 00:32:10;;;;;;;4.05;1.52;;;;;;;11.17;79.52;97689.25;344336;28;1378;-66
2022/11/18 00:32:22;;;;;;;3.67;1.50;;;;;;;11.20;79.34;97688.22;344517;28;1317;-66
2022/11/18 00:32:34;;;;;;;2.95;1.40;;;;;;;11.21;79.41;97684.69;345124;28;1078;-67
2022/11/18 00:32:46;;;;;;;2.70;1.40;;;;;;;11.21;79.61;97682.09;345105;28;1047;-66
2022/11/18 00:32:58;;;;;;;2.72;1.50;;;;;;;11.21;79.47;97679.50;345046;28;1645;-66
2022/11/18 00:33:10;;;;;;;5.30;1.77;;;;;;;11.18;79.22;97680.50;341946;28;3533;-67
2022/11/18 00:33:22;;;;;;;5.75;1.88;;;;;;;11.18;79.45;97680.50;344321;28;3051;-67
2022/11/18 00:33:35;;;;;;;6.07;1.73;;;;;;;11.20;79.63;97686.44;344939;28;1166;-66
2022/11/18 00:33:47;;;;;;;3.75;1.52;;;;;;;11.22;79.76;97688.94;344829;28;5326;-66
2022/11/18 00:33:59;;;;;;;3.03;1.35;;;;;;;11.24;79.54;97686.25;344726;28;2240;-66
2022/11/18 00:34:14;;;;;;;3.00;1.30;;;;;;;11.25;79.33;97686.16;344555;28;1978;-66
2022/11/18 00:34:26;;;;;;;1.70;1.20;;;;;;;11.26;79.24;97686.97;343959;28;1098;-67
2022/11/18 00:34:38;;;;;;;2.28;1.20;;;;;;;11.28;79.41;97682.50;343558;28;1534;-66
2022/11/18 00:34:50;;;;;;;2.65;1.27;;;;;;;11.29;79.09;97687.63;343316;28;1560;-66
2022/11/18 00:35:02;;;;;;;2.17;1.25;;;;;;;11.30;78.92;97688.44;344824;28;1042;-66
2022/11/18 00:35:14;;;;;;;2.17;1.20;;;;;;;11.30;79.09;97681.47;344695;28;2888;-66
2022/11/18 00:35:26;;;;;;;2.10;1.20;;;;;;;11.31;78.88;97684.91;344781;28;1306;-66
2022/11/18 00:35:38;;;;;;;2.28;1.17;;;;;;;11.33;79.22;97683.03;344710;28;1091;-67
2022/11/18 00:35:54;;;;;;;2.25;1.25;;;;;;;11.30;79.34;97688.44;344787;28;1269;-67
2022/11/18 00:36:10;;;;;;;2.10;1.30;;;;;;;11.29;79.36;97678.97;344773;28;1241;-66
2022/11/18 00:36:22;;;;;;;1.52;1.30;;;;;;;11.28;78.97;97680.72;344671;28;1280;-66
2022/11/18 00:36:34;;;;;;;1.60;1.30;;;;;;;11.28;79.11;97682.50;343541;28;1205;-66
2022/11/18 00:36:46;;;;;;;2.03;1.48;;;;;;;11.26;79.37;97679.19;343654;28;1128;-66
2022/11/18 00:36:58;;;;;;;1.90;1.50;;;;;;;11.25;78.92;97682.69;343674;28;1070;-67
2022/11/18 00:37:10;;;;;;;2.05;1.60;;;;;;;11.24;79.25;97688.84;343473;28;1158;-66
2022/11/18 00:37:22;;;;;;;2.63;1.65;;;;;;;11.23;79.48;97681.97;345348;28;1764;-66
2022/11/18 00:37:34;;;;;;;2.75;1.73;;;;;;;11.20;79.20;97686.44;343825;28;1657;-66
2022/11/18 00:37:46;;;;;;;2.63;1.70;;;;;;;11.22;79.48;97688.13;343972;28;1636;-66
2022/11/18 00:37:58;;;;;;;2.67;1.67;;;;;;;11.23;79.11;97681.97;344832;28;1043;-67
2022/11/18 00:38:10;;;;;;;2.70;1.70;;;;;;;11.26;79.12;97686.97;344601;28;1626;-66
2022/11/18 00:38:23;;;;;;;2.95;1.65;;;;;;;11.28;78.87;97685.94;344651;28;1873;-66
2022/11/18 00:38:35;;;;;;;3.10;1.63;;;;;;;11.27;78.94;97684.28;344562;28;1109;-67
2022/11/18 00:38:47;;;;;;;3.35;1.50;;;;;;;11.29;79.07;97686.75;343511;28;1060;-66
2022/11/18 00:38:59;;;;;;;3.28;1.50;;;;;;;11.31;79.31;97690.13;342949;28;1032;-67
2022/11/18 00:39:13;;;;;;;3.63;1.40;;;;;;;11.30;78.69;97684.06;343653;28;2999;-66
2022/11/18 00:39:26;;;;;;;3.33;1.30;;;;;;;11.34;78.81;97689.91;343331;28;996;-67
2022/11/18 00:39:38;;;;;;;2.72;1.30;;;;;;;11.34;79.01;97690.72;343445;28;1186;-67
2022/11/18 00:39:50;;;;;;;2.50;1.20;;;;;;;11.35;79.09;97686.38;343728;28;1436;-67
2022/11/18 00:40:02;;;;;;;2.88;1.35;;;;;;;11.36;78.71;97688.84;343547;28;1066;-67
2022/11/18 00:40:14;;;;;;;2.05;1.30;;;;;;;11.37;78.94;97694.91;343676;28;1265;-67
2022/11/18 00:40:26;;;;;;;2.70;1.42;;;;;;;11.37;78.62;97685.34;343893;28;1296;-66
2022/11/18 00:40:38;;;;;;;3.15;1.40;;;;;;;11.38;78.87;97686.16;343743;28;1027;-67
2022/11/18 00:41:04;;;;;;;3.30;1.58;;;;;;;11.39;78.61;97693.03;343993;28;1878;-67
2022/11/18 00:41:16;;;;;;;3.70;1.45;;;;;;;11.39;78.38;97693.88;344083;28;1761;-67
2022/11/18 00:42:49;;;;;;;2.88;1.30;;;;;;;11.39;78.25;97693.03;343322;28;1079;-67
2022/11/18 00:43:02;;;;;;;4.03;1.23;;;;;;;11.41;78.82;97693.78;344321;28;2054;-66
2022/11/18 00:43:14;;;;;;;3.67;1.33;;;;;;;11.39;78.50;97690.44;343650;28;1062;-67
2022/11/18 00:43:26;;;;;;;3.10;1.40;;;;;;;11.40;78.41;97692.09;343816;28;1374;-67
2022/11/18 00:43:38;;;;;;;2.05;1.50;;;;;;;11.40;78.41;97697.28;343537;28;1120;-66
2022/11/18 00:43:50;;;;;;;2.37;1.50;;;;;;;11.42;78.44;97697.19;343493;28;1047;-67
2022/11/18 00:44:02;;;;;;;2.42;1.40;;;;;;;11.42;78.40;97692.81;343482;28;1202;-66
2022/11/18 00:44:20;;;;;;;2.05;1.20;;;;;;;11.42;78.41;97695.41;344125;28;1068;-67
2022/11/18 00:44:32;;;;;;;2.00;1.30;;;;;;;11.44;78.89;97690.94;344698;28;1889;-66
2022/11/18 00:44:44;;;;;;;2.00;1.38;;;;;;;11.44;78.19;97693.53;343892;28;1841;-66
2022/11/18 00:44:56;;;;;;;2.88;1.25;;;;;;;11.43;78.28;97689.28;343489;28;1047;-67
2022/11/18 00:45:08;;;;;;;3.42;1.20;;;;;;;11.46;78.58;97693.44;343769;28;1885;-67
2022/11/18 00:45:22;;;;;;;3.45;1.17;;;;;;;11.47;78.43;97690.75;344112;28;1122;-66
2022/11/18 00:45:34;;;;;;;3.30;1.10;;;;;;;11.48;78.02;97694.19;345033;28;1110;-66
2022/11/18 00:45:46;;;;;;;2.70;1.05;;;;;;;11.46;78.17;97691.66;344957;28;1074;-66
2022/11/18 00:45:58;;;;;;;3.00;1.10;;;;;;;11.45;78.26;97691.78;344957;28;1073;-67
2022/11/18 00:46:11;;;;;;;3.47;1.15;;;;;;;11.46;78.54;97688.25;345060;28;1246;-67
2022/11/18 00:46:23;;;;;;;3.20;1.13;;;;;;;11.46;78.25;97689.06;344923;28;1308;-67
2022/11/18 00:46:34;;;;;;;3.42;1.10;;;;;;;11.46;78.16;97693.44;344480;28;1598;-67
2022/11/18 00:46:46;;;;;;;2.00;1.00;;;;;;;11.46;78.08;97689.06;344252;28;1489;-66
2022/11/18 00:46:58;;;;;;;2.20;1.02;;;;;;;11.46;78.11;97690.84;343759;28;1402;-67
2022/11/18 00:47:10;;;;;;;2.60;1.10;;;;;;;11.46;78.05;97689.06;343549;28;1335;-67
2022/11/18 00:47:23;;;;;;;1.70;1.00;;;;;;;11.47;78.45;97695.94;344184;28;1327;-67
2022/11/18 00:47:35;;;;;;;1.63;1.00;;;;;;;11.48;78.41;97687.19;344253;28;1648;-66
2022/11/18 00:47:47;;;;;;;2.58;1.10;;;;;;;11.49;78.58;97688.88;344728;28;1296;-67
2022/11/18 00:47:59;;;;;;;4.72;1.10;;;;;;;11.50;78.43;97690.53;344080;28;2101;-66
2022/11/18 00:48:10;;;;;;;4.30;1.13;;;;;;;11.50;78.07;97690.53;344704;28;1111;-67
2022/11/18 00:48:23;;;;;;;2.60;1.10;;;;;;;11.51;78.41;97687.00;344610;28;1300;-66
2022/11/18 00:48:36;;;;;;;2.87;1.10;;;;;;;11.50;78.12;97695.72;344949;28;1054;-67
2022/11/18 00:48:48;;;;;;;2.72;1.00;;;;;;;11.50;78.04;97695.72;344772;28;1068;-66
2022/11/18 00:48:59;;;;;;;3.30;1.20;;;;;;;11.48;77.84;97692.41;344803;28;1063;-67
2022/11/18 00:49:11;;;;;;;3.08;1.35;;;;;;;11.49;78.25;97694.06;345012;28;1010;-67
2022/11/18 00:49:23;;;;;;;3.63;1.33;;;;;;;11.49;78.27;97691.47;344973;28;1283;-66
2022/11/18 00:49:35;;;;;;;2.28;1.20;;;;;;;11.48;78.19;97697.59;344097;28;2226;-66
2022/11/18 00:49:47;;;;;;;2.15;1.30;;;;;;;11.49;78.31;97694.06;343499;28;1019;-67
2022/11/18 00:49:59;;;;;;;2.30;1.30;;;;;;;11.49;78.35;97694.06;343591;28;1019;-66
2022/11/18 00:50:11;;;;;;;2.20;1.20;;;;;;;11.48;78.14;97697.59;343458;28;1071;-67
2022/11/18 00:50:23;;;;;;;3.33;1.20;;;;;;;11.47;78.33;97688.16;344301;28;1590;-66
2022/11/18 00:50:35;;;;;;;3.45;1.25;;;;;;;11.47;78.61;97685.53;344789;28;1067;-66
2022/11/18 00:50:52;;;;;;;2.50;1.45;;;;;;;11.49;78.60;97688.03;344660;28;1079;-66
2022/11/18 00:51:07;;;;;;;2.25;1.27;;;;;;;11.49;78.35;97691.47;344531;28;1316;-67
2022/11/18 00:51:19;;;;;;;2.42;1.20;;;;;;;11.49;78.42;97686.28;343705;28;2329;-66
2022/11/18 00:51:31;;;;;;;3.85;1.45;;;;;;;11.49;78.46;97690.63;344620;28;1762;-67
2022/11/18 00:51:42;;;;;;;4.35;1.50;;;;;;;11.48;78.26;97689.78;344758;28;1051;-67
2022/11/18 00:51:55;;;;;;;4.82;1.40;;;;;;;11.48;78.42;97691.56;344262;28;1811;-66
2022/11/18 00:52:07;;;;;;;3.53;1.17;;;;;;;11.48;78.64;97689.78;344827;28;1116;-66
2022/11/18 00:52:19;;;;;;;2.97;1.10;;;;;;;11.50;78.47;97690.53;344318;28;1295;-66
2022/11/18 00:52:31;;;;;;;2.35;1.10;;;;;;;11.50;78.67;97693.13;343614;28;1754;-66
2022/11/18 00:52:43;;;;;;;2.03;1.17;;;;;;;11.50;78.39;97685.31;344263;28;1171;-66
2022/11/18 00:52:55;;;;;;;2.83;1.40;;;;;;;11.50;78.63;97690.53;344828;28;1168;-66
2022/11/18 00:53:07;;;;;;;1.95;1.23;;;;;;;11.48;78.41;97689.78;344870;28;1275;-66
2022/11/18 00:53:21;;;;;;;2.42;1.25;;;;;;;11.47;78.66;97690.75;344343;28;1573;-66
2022/11/18 00:53:33;;;;;;;2.58;1.20;;;;;;;11.48;78.59;97692.41;345091;28;1234;-66
2022/11/18 00:53:45;;;;;;;2.45;1.10;;;;;;;11.49;78.58;97694.06;345056;28;1027;-66
2022/11/18 00:53:57;;;;;;;2.60;1.10;;;;;;;11.50;78.81;97690.53;344718;28;1201;-66
2022/11/18 00:54:09;;;;;;;3.58;1.38;;;;;;;11.50;78.73;97695.72;344874;28;1237;-66
2022/11/18 00:54:21;;;;;;;2.75;1.35;;;;;;;11.50;78.80;97690.53;344769;28;1312;-66
2022/11/18 00:54:33;;;;;;;2.50;1.25;;;;;;;11.47;78.30;97693.34;345044;28;1116;-66
2022/11/18 00:54:45;;;;;;;2.28;1.17;;;;;;;11.49;78.33;97694.06;344850;28;1176;-66
2022/11/18 00:54:57;;;;;;;2.20;1.20;;;;;;;11.49;78.56;97694.06;345225;28;1040;-67
2022/11/18 00:55:09;;;;;;;2.67;1.30;;;;;;;11.51;78.17;97694.81;344931;28;1067;-66
2022/11/18 00:55:21;;;;;;;2.15;1.23;;;;;;;11.51;78.04;97691.34;345225;28;1244;-66
2022/11/18 00:55:33;;;;;;;1.98;1.13;;;;;;;11.51;77.93;97687.00;345046;28;1250;-66
2022/11/18 00:55:45;;;;;;;2.40;1.10;;;;;;;11.54;78.17;97696.34;345149;28;1589;-66
2022/11/18 00:55:57;;;;;;;2.20;1.00;;;;;;;11.52;78.20;97691.25;344954;28;1213;-66
2022/11/18 00:56:09;;;;;;;2.35;1.15;;;;;;;11.53;78.41;97695.53;344760;28;966;-66
2022/11/18 00:56:21;;;;;;;2.65;1.30;;;;;;;11.52;78.61;97688.66;345027;28;1022;-66
2022/11/18 00:56:33;;;;;;;1.98;1.10;;;;;;;11.52;78.39;97686.06;344873;28;1031;-67
2022/11/18 00:56:45;;;;;;;2.13;1.20;;;;;;;11.53;78.39;97685.13;344289;28;1886;-66
2022/11/18 00:56:57;;;;;;;2.13;1.10;;;;;;;11.52;78.20;97688.66;344636;28;1382;-66
2022/11/18 00:57:09;;;;;;;2.90;1.30;;;;;;;11.55;78.57;97687.59;344900;28;1156;-66
2022/11/18 00:57:21;;;;;;;2.97;1.25;;;;;;;11.56;78.15;97694.50;344862;28;1034;-66
2022/11/18 00:57:33;;;;;;;4.20;1.20;;;;;;;11.56;78.07;97684.91;344068;28;2237;-66
2022/11/18 00:57:45;;;;;;;3.20;1.10;;;;;;;11.56;78.08;97690.09;344933;28;1789;-66
2022/11/18 00:57:57;;;;;;;2.15;1.10;;;;;;;11.58;78.05;97683.03;345111;28;1116;-66
2022/11/18 00:58:13;;;;;;;2.20;1.30;;;;;;;11.59;77.94;97686.50;344877;28;1114;-66
2022/11/18 00:58:25;;;;;;;2.47;1.50;;;;;;;11.57;77.83;97681.38;344782;28;1372;-66
2022/11/18 00:58:36;;;;;;;2.70;1.50;;;;;;;11.59;77.86;97683.88;345051;28;1277;-66
2022/11/18 00:58:48;;;;;;;2.63;1.33;;;;;;;11.57;77.63;97686.59;345049;28;1193;-66
2022/11/18 00:59:00;;;;;;;4.60;1.33;;;;;;;11.59;77.67;97686.50;344585;28;1050;-66
2022/11/18 00:59:12;;;;;;;5.70;1.30;;;;;;;11.58;77.70;97683.03;344800;28;1244;-66
2022/11/18 00:59:24;;;;;;;3.78;1.30;;;;;;;11.59;77.85;97682.09;344766;28;1337;-66
2022/11/18 00:59:36;;;;;;;2.75;1.20;;;;;;;11.60;77.71;97675.94;343441;28;1573;-66
2022/11/18 00:59:48;;;;;;;2.50;1.17;;;;;;;11.59;77.75;97682.09;343722;28;1243;-66
2022/11/18 01:00:00;;;;;;;3.03;1.10;;;;;;;11.58;77.92;97683.03;343773;28;1572;-66
2022/11/18 01:00:13;;;;;;;3.67;1.15;;;;;;;11.59;77.65;97682.09;343453;28;1186;-66
2022/11/18 01:00:25;;;;;;;3.85;1.30;;;;;;;11.59;77.64;97682.09;343397;28;1950;-66
2022/11/18 01:00:37;;;;;;;2.70;1.33;;;;;;;11.60;77.65;97681.16;344742;28;2302;-66
2022/11/18 01:00:50;;;;;;;2.80;1.25;;;;;;;11.58;77.52;97683.03;344798;28;1237;-66
2022/11/18 01:01:03;;;;;;;3.25;1.20;;;;;;;11.59;77.42;97679.50;344521;28;1523;-66
2022/11/18 01:01:15;;;;;;;2.88;1.30;;;;;;;11.58;76.98;97685.63;343543;28;1647;-66
2022/11/18 01:01:27;;;;;;;2.47;1.20;;;;;;;11.55;76.96;97685.84;345004;28;790;-67
2022/11/18 01:01:40;;;;;;;6.90;1.30;;;;;;;11.56;77.07;97681.47;344852;28;1132;-67
2022/11/18 01:01:52;;;;;;;6.60;1.30;;;;;;;11.57;76.97;97681.38;344718;28;1162;-67
2022/11/18 01:02:04;;;;;;;6.03;1.20;;;;;;;11.57;77.09;97683.16;344773;28;2127;-66
2022/11/18 01:02:16;;;;;;;2.63;1.08;;;;;;;11.58;77.03;97688.22;344628;28;1256;-67
2022/11/18 01:02:27;;;;;;;2.33;1.08;;;;;;;11.59;76.68;97684.72;344788;28;1236;-67
2022/11/18 01:02:39;;;;;;;2.30;1.10;;;;;;;11.57;76.61;97686.59;344011;28;1638;-66
2022/11/18 01:02:51;;;;;;;2.90;1.10;;;;;;;11.57;76.36;97686.59;343372;28;1287;-67
2022/11/18 01:03:03;;;;;;;3.65;1.23;;;;;;;11.54;75.98;97680.75;343421;28;1287;-67
2022/11/18 01:03:16;;;;;;;4.78;1.42;;;;;;;11.54;76.04;97686.78;343265;28;1187;-67
2022/11/18 01:03:28;;;;;;;4.20;1.48;;;;;;;11.55;76.40;97692.81;343216;28;1258;-67
2022/11/18 01:03:40;;;;;;;4.28;1.40;;;;;;;11.51;75.76;97681.81;343422;28;1025;-67
2022/11/18 01:03:53;;;;;;;3.80;1.50;;;;;;;11.48;75.44;97682.00;343559;28;1151;-66
2022/11/18 01:04:05;;;;;;;3.63;1.52;;;;;;;11.44;75.58;97680.53;343472;28;1960;-67
2022/11/18 01:04:17;;;;;;;3.70;1.65;;;;;;;11.45;75.53;97682.22;343539;28;1293;-66
2022/11/18 01:04:29;;;;;;;2.97;1.55;;;;;;;11.47;76.00;97688.16;344690;28;1136;-67
2022/11/18 01:04:41;;;;;;;3.15;1.77;;;;;;;11.42;75.66;97682.41;344905;28;1181;-66
2022/11/18 01:04:53;;;;;;;3.53;2.22;;;;;;;11.44;75.85;97685.75;345022;28;1052;-67
2022/11/18 01:05:05;;;;;;;3.25;2.35;;;;;;;11.44;75.56;97685.75;344945;28;1054;-67